createdAt,value
2019-05-29T00:00:57.083Z,14.50
2019-05-29T00:03:24.820Z,14.33
2019-05-29T00:05:52.472Z,14.21
2019-05-29T00:08:20.142Z,14.16
2019-05-29T00:10:48.059Z,14.24
2019-05-29T00:13:15.819Z,14.22
2019-05-29T00:15:43.483Z,13.93
2019-05-29T00:18:12.392Z,13.81
2019-05-29T00:20:40.175Z,13.88
2019-05-29T00:23:08.462Z,13.83
2019-05-29T00:25:36.231Z,13.76
2019-05-29T00:28:04.025Z,13.87
2019-05-29T00:30:31.736Z,13.91
2019-05-29T00:32:59.384Z,13.75
2019-05-29T00:35:27.066Z,13.85
2019-05-29T00:37:54.742Z,13.98
2019-05-29T00:40:22.473Z,13.82
2019-05-29T00:42:50.139Z,13.73
2019-05-29T00:45:17.880Z,13.60
2019-05-29T00:47:45.539Z,13.56
2019-05-29T00:50:14.135Z,13.54
2019-05-29T00:52:41.962Z,13.64
2019-05-29T00:55:10.499Z,13.61
2019-05-29T00:57:38.356Z,13.53
2019-05-29T01:00:06.037Z,13.67
2019-05-29T01:02:33.903Z,13.24
2019-05-29T01:05:01.640Z,13.27
2019-05-29T01:07:29.336Z,13.17
2019-05-29T01:09:56.991Z,13.09
2019-05-29T01:12:24.663Z,12.92
2019-05-29T01:14:52.379Z,12.85
2019-05-29T01:17:20.045Z,12.92
2019-05-29T01:19:47.702Z,13.03
2019-05-29T01:22:16.146Z,12.98
2019-05-29T01:24:44.092Z,13.03
2019-05-29T01:27:12.600Z,12.84
2019-05-29T01:29:40.372Z,12.88
2019-05-29T01:32:08.042Z,12.81
2019-05-29T01:34:35.693Z,12.82
2019-05-29T01:37:03.384Z,12.79
2019-05-29T01:39:31.108Z,12.81
2019-05-29T01:41:58.871Z,12.76
2019-05-29T01:44:27.718Z,12.77
2019-05-29T01:46:55.779Z,12.83
2019-05-29T01:49:23.804Z,12.81
2019-05-29T01:51:51.748Z,12.68
2019-05-29T01:54:19.736Z,12.45
2019-05-29T01:56:47.531Z,12.49
2019-05-29T01:59:15.713Z,12.76
2019-05-29T02:01:43.524Z,12.74
2019-05-29T02:04:11.337Z,12.54
2019-05-29T02:06:38.999Z,12.61
2019-05-29T02:09:06.911Z,12.74
2019-05-29T02:11:34.574Z,12.80
2019-05-29T02:14:02.217Z,12.80
2019-05-29T02:16:30.010Z,12.79
2019-05-29T02:18:57.657Z,12.78
2019-05-29T02:21:25.309Z,12.67
2019-05-29T02:23:52.967Z,12.74
2019-05-29T02:26:20.622Z,12.93
2019-05-29T02:28:48.376Z,12.89
2019-05-29T02:31:17.651Z,13.02
2019-05-29T02:33:45.388Z,13.07
2019-05-29T02:36:13.047Z,12.85
2019-05-29T02:38:40.693Z,12.60
2019-05-29T02:41:08.363Z,12.77
2019-05-29T02:43:36.014Z,12.88
2019-05-29T02:46:03.686Z,13.17
2019-05-29T02:48:31.837Z,12.80
2019-05-29T02:50:59.564Z,12.88
2019-05-29T02:53:28.668Z,12.79
2019-05-29T02:55:56.607Z,12.77
2019-05-29T02:58:25.842Z,12.75
2019-05-29T03:00:53.852Z,12.53
2019-05-29T03:03:21.710Z,12.67
2019-05-29T03:05:49.473Z,12.38
2019-05-29T03:08:17.147Z,12.65
2019-05-29T03:10:44.867Z,12.46
2019-05-29T03:13:12.508Z,12.59
2019-05-29T03:15:40.157Z,12.76
2019-05-29T03:18:07.816Z,12.59
2019-05-29T03:20:35.471Z,12.50
2019-05-29T03:23:03.254Z,12.51
2019-05-29T03:25:32.458Z,12.57
2019-05-29T03:28:00.427Z,12.60
2019-05-29T03:30:31.627Z,12.39
2019-05-29T03:32:57.659Z,12.38
2019-05-29T03:35:28.633Z,12.29
2019-05-29T03:37:58.670Z,12.08
2019-05-29T03:40:26.337Z,12.27
2019-05-29T03:42:53.749Z,12.45
2019-05-29T03:45:21.414Z,12.33
2019-05-29T03:47:49.074Z,12.57
2019-05-29T03:50:17.030Z,12.57
2019-05-29T03:52:44.705Z,12.36
2019-05-29T03:55:12.384Z,12.30
2019-05-29T03:57:40.036Z,12.19
2019-05-29T04:00:07.696Z,12.31
2019-05-29T04:02:36.151Z,12.35
2019-05-29T04:05:05.017Z,12.16
2019-05-29T04:07:33.670Z,12.24
2019-05-29T04:10:02.030Z,12.48
2019-05-29T04:12:30.039Z,12.26
2019-05-29T04:14:59.208Z,12.48
2019-05-29T04:17:27.276Z,12.55
2019-05-29T04:19:55.132Z,12.53
2019-05-29T04:22:22.791Z,12.34
2019-05-29T04:24:50.448Z,12.32
2019-05-29T04:27:18.202Z,12.45
2019-05-29T04:29:45.902Z,12.50
2019-05-29T04:32:13.703Z,12.42
2019-05-29T04:34:41.412Z,12.59
2019-05-29T04:37:09.069Z,12.44
2019-05-29T04:39:37.009Z,12.45
2019-05-29T04:42:05.254Z,12.22
2019-05-29T04:44:33.890Z,12.34
2019-05-29T04:47:10.852Z,12.36
2019-05-29T04:49:33.650Z,12.43
2019-05-29T04:52:01.296Z,12.35
2019-05-29T04:54:29.345Z,12.34
2019-05-29T04:56:57.139Z,12.41
2019-05-29T04:59:24.793Z,12.50
2019-05-29T05:01:52.440Z,12.15
2019-05-29T05:04:20.097Z,12.29
2019-05-29T05:06:47.748Z,12.49
2019-05-29T05:09:15.502Z,12.66
2019-05-29T05:11:43.162Z,12.44
2019-05-29T05:14:10.887Z,12.65
2019-05-29T05:16:38.540Z,12.70
2019-05-29T05:19:06.201Z,12.70
2019-05-29T05:21:34.084Z,12.70
2019-05-29T05:24:01.800Z,12.72
2019-05-29T05:26:30.069Z,12.88
2019-05-29T05:28:57.911Z,12.94
2019-05-29T05:31:25.646Z,12.80
2019-05-29T05:33:53.372Z,12.88
2019-05-29T05:36:21.036Z,12.87
2019-05-29T05:38:48.696Z,12.63
2019-05-29T05:41:16.700Z,12.75
2019-05-29T05:43:44.566Z,13.00
2019-05-29T05:46:12.304Z,13.15
2019-05-29T05:48:39.956Z,13.23
2019-05-29T05:51:07.606Z,13.23
2019-05-29T05:53:35.458Z,13.16
2019-05-29T05:56:03.222Z,13.11
2019-05-29T05:58:31.673Z,13.11
2019-05-29T06:00:59.428Z,13.16
2019-05-29T06:03:27.268Z,13.15
2019-05-29T06:05:54.918Z,13.26
2019-05-29T06:08:22.576Z,13.12
2019-05-29T06:10:51.301Z,13.10
2019-05-29T06:13:19.167Z,12.94
2019-05-29T06:15:46.969Z,13.09
2019-05-29T06:18:21.081Z,13.14
2019-05-29T06:20:44.104Z,12.94
2019-05-29T06:23:11.786Z,13.03
2019-05-29T06:25:40.712Z,13.21
2019-05-29T06:28:08.931Z,13.16
2019-05-29T06:30:38.862Z,13.17
2019-05-29T06:33:05.951Z,13.12
2019-05-29T06:35:34.133Z,13.24
2019-05-29T06:38:03.281Z,13.24
2019-05-29T06:40:31.002Z,13.26
2019-05-29T06:42:58.662Z,13.39
2019-05-29T06:45:26.500Z,13.70
2019-05-29T06:47:54.177Z,13.97
2019-05-29T06:50:22.013Z,14.08
2019-05-29T06:52:49.747Z,14.07
2019-05-29T06:55:17.617Z,14.26
2019-05-29T06:57:45.591Z,14.27
2019-05-29T07:00:13.472Z,13.90
2019-05-29T07:02:42.546Z,14.27
2019-05-29T07:05:10.412Z,14.08
2019-05-29T07:07:38.348Z,14.27
2019-05-29T07:10:06.220Z,14.07
2019-05-29T07:12:33.953Z,13.99
2019-05-29T07:15:01.624Z,13.89
2019-05-29T07:17:29.430Z,14.21
2019-05-29T07:20:03.400Z,14.32
2019-05-29T07:22:26.517Z,14.18
2019-05-29T07:24:54.171Z,14.10
2019-05-29T07:27:21.834Z,14.33
2019-05-29T07:29:49.585Z,14.61
2019-05-29T07:32:17.443Z,14.50
2019-05-29T07:34:56.719Z,14.76
2019-05-29T07:37:14.524Z,15.01
2019-05-29T07:39:42.181Z,14.91
2019-05-29T07:42:09.937Z,14.97
2019-05-29T07:44:38.028Z,14.82
2019-05-29T07:47:09.312Z,14.66
2019-05-29T07:49:38.925Z,15.09
2019-05-29T07:52:04.849Z,14.96
2019-05-29T07:54:32.742Z,14.72
2019-05-29T07:57:00.395Z,14.88
2019-05-29T07:59:28.734Z,15.02
2019-05-29T08:01:56.569Z,15.13
2019-05-29T08:04:24.269Z,14.99
2019-05-29T08:06:54.494Z,15.04
2019-05-29T08:09:21.373Z,14.85
2019-05-29T08:11:50.120Z,14.86
2019-05-29T08:14:17.952Z,14.79
2019-05-29T08:16:46.055Z,14.85
2019-05-29T08:19:13.902Z,14.75
2019-05-29T08:21:42.689Z,14.96
2019-05-29T08:24:10.450Z,14.96
2019-05-29T08:26:38.132Z,14.88
2019-05-29T08:29:05.801Z,14.90
2019-05-29T08:31:33.553Z,14.86
2019-05-29T08:34:01.203Z,14.76
2019-05-29T08:36:28.936Z,15.10
2019-05-29T08:38:56.588Z,15.17
2019-05-29T08:41:24.262Z,14.98
2019-05-29T08:43:52.768Z,15.29
2019-05-29T08:46:20.697Z,14.89
2019-05-29T08:48:48.342Z,14.88
2019-05-29T08:51:16.053Z,14.88
2019-05-29T08:53:44.326Z,15.07
2019-05-29T08:56:12.193Z,15.30
2019-05-29T08:58:40.159Z,15.39
2019-05-29T09:01:08.124Z,15.57
2019-05-29T09:03:35.777Z,15.43
2019-05-29T09:06:08.905Z,15.70
2019-05-29T09:08:32.809Z,15.56
2019-05-29T09:11:00.473Z,15.14
2019-05-29T09:13:28.339Z,15.43
2019-05-29T09:15:56.000Z,15.29
2019-05-29T09:18:25.565Z,15.41
2019-05-29T09:21:02.884Z,15.59
2019-05-29T09:23:23.334Z,15.50
2019-05-29T09:25:51.120Z,15.89
2019-05-29T09:28:20.498Z,15.77
2019-05-29T09:30:48.185Z,15.87
2019-05-29T09:33:17.998Z,15.98
2019-05-29T09:35:45.245Z,15.79
2019-05-29T09:38:12.900Z,16.20
2019-05-29T09:40:40.545Z,16.14
2019-05-29T09:43:08.198Z,16.84
2019-05-29T09:45:35.846Z,16.08
2019-05-29T09:48:03.733Z,16.26
2019-05-29T09:50:48.815Z,16.12
2019-05-29T09:53:02.669Z,15.69
2019-05-29T09:55:30.316Z,15.88
2019-05-29T09:57:58.694Z,15.97
2019-05-29T10:00:26.723Z,16.25
2019-05-29T10:02:55.463Z,17.34
2019-05-29T10:05:23.319Z,17.28
2019-05-29T10:07:50.982Z,17.04
2019-05-29T10:10:18.720Z,17.47
2019-05-29T10:12:46.376Z,17.87
2019-05-29T10:15:14.032Z,18.04
2019-05-29T10:17:41.718Z,17.94
2019-05-29T10:20:09.438Z,17.36
2019-05-29T10:22:37.128Z,16.85
2019-05-29T10:25:05.853Z,17.15
2019-05-29T10:27:33.639Z,17.31
2019-05-29T10:30:01.297Z,17.07
2019-05-29T10:32:29.035Z,16.59
2019-05-29T10:34:56.697Z,16.13
2019-05-29T10:37:24.354Z,15.66
2019-05-29T10:39:52.957Z,15.81
2019-05-29T10:42:21.042Z,16.10
2019-05-29T10:44:49.115Z,15.93
2019-05-29T10:47:17.942Z,16.49
2019-05-29T10:49:45.664Z,16.16
2019-05-29T10:52:16.643Z,16.25
2019-05-29T10:54:44.036Z,16.33
2019-05-29T10:57:11.841Z,16.50
2019-05-29T10:59:39.772Z,16.58
2019-05-29T11:02:07.675Z,16.80
2019-05-29T11:04:35.332Z,17.10
2019-05-29T11:07:03.001Z,17.29
2019-05-29T11:09:43.282Z,17.36
2019-05-29T11:12:00.045Z,17.56
2019-05-29T11:14:27.702Z,17.90
2019-05-29T11:16:55.344Z,17.99
2019-05-29T11:19:26.076Z,17.61
2019-05-29T11:21:53.846Z,17.48
2019-05-29T11:24:21.752Z,16.96
2019-05-29T11:26:50.308Z,17.17
2019-05-29T11:29:18.164Z,17.19
2019-05-29T11:31:46.059Z,17.54
2019-05-29T11:34:13.792Z,17.68
2019-05-29T11:36:41.448Z,17.78
2019-05-29T11:39:09.118Z,17.87
2019-05-29T11:41:36.763Z,18.37
2019-05-29T11:44:04.555Z,18.63
2019-05-29T11:46:32.316Z,18.20
2019-05-29T11:49:00.053Z,18.14
2019-05-29T11:51:27.705Z,17.87
2019-05-29T11:53:55.812Z,17.49
2019-05-29T11:56:23.619Z,17.37
2019-05-29T11:58:51.310Z,17.42
2019-05-29T12:01:19.182Z,17.27
2019-05-29T12:04:09.598Z,17.38
2019-05-29T12:06:16.429Z,17.48
2019-05-29T12:08:44.165Z,17.60
2019-05-29T12:11:11.816Z,17.75
2019-05-29T12:13:39.471Z,17.54
2019-05-29T12:16:07.169Z,17.49
2019-05-29T12:18:34.952Z,17.58
2019-05-29T12:21:02.974Z,17.98
2019-05-29T12:23:30.803Z,17.90
2019-05-29T12:26:16.609Z,17.79
2019-05-29T12:28:27.856Z,17.71
2019-05-29T12:30:56.786Z,17.90
2019-05-29T12:33:24.744Z,17.75
2019-05-29T12:35:52.896Z,18.00
2019-05-29T12:38:20.648Z,18.03
2019-05-29T12:40:48.291Z,18.31
2019-05-29T12:43:26.468Z,18.06
2019-05-29T12:45:45.323Z,17.98
2019-05-29T12:48:15.322Z,17.86
2019-05-29T12:50:42.608Z,17.89
2019-05-29T12:53:28.294Z,17.72
2019-05-29T12:55:39.712Z,17.93
2019-05-29T12:58:07.405Z,17.87
2019-05-29T13:00:35.303Z,17.91
2019-05-29T13:03:03.208Z,17.91
2019-05-29T13:05:31.473Z,17.85
2019-05-29T13:08:00.696Z,17.59
2019-05-29T13:10:30.898Z,17.63
2019-05-29T13:13:04.077Z,17.92
2019-05-29T13:15:27.576Z,18.09
2019-05-29T13:18:01.857Z,18.48
2019-05-29T13:20:25.199Z,18.34
2019-05-29T13:22:52.922Z,18.62
2019-05-29T13:25:20.614Z,18.70
2019-05-29T13:27:48.309Z,18.78
2019-05-29T13:30:15.982Z,18.98
2019-05-29T13:32:43.742Z,18.38
2019-05-29T13:35:11.492Z,18.26
2019-05-29T13:37:39.425Z,17.94
2019-05-29T13:40:08.526Z,17.94
2019-05-29T13:42:36.389Z,17.65
2019-05-29T13:45:11.064Z,17.46
2019-05-29T13:47:33.446Z,17.42
2019-05-29T13:50:05.857Z,18.06
2019-05-29T13:52:30.522Z,18.06
2019-05-29T13:54:59.217Z,18.26
2019-05-29T13:57:27.044Z,18.49
2019-05-29T13:59:54.708Z,18.24
2019-05-29T14:02:22.377Z,18.32
2019-05-29T14:04:50.037Z,17.83
2019-05-29T14:07:17.712Z,17.83
2019-05-29T14:09:45.376Z,17.89
2019-05-29T14:12:13.092Z,18.04
2019-05-29T14:14:40.817Z,18.02
2019-05-29T14:17:08.857Z,18.15
2019-05-29T14:19:36.681Z,18.15
2019-05-29T14:22:05.028Z,18.29
2019-05-29T14:24:33.007Z,18.18
2019-05-29T14:27:01.610Z,18.05
2019-05-29T14:29:29.512Z,18.32
2019-05-29T14:31:57.165Z,18.10
2019-05-29T14:34:24.811Z,18.09
2019-05-29T14:36:52.640Z,18.53
2019-05-29T14:39:20.286Z,18.82
2019-05-29T14:41:48.120Z,19.02
2019-05-29T14:44:17.221Z,18.62
2019-05-29T14:46:45.364Z,18.79
2019-05-29T14:49:13.521Z,18.74
2019-05-29T14:51:41.390Z,18.67
2019-05-29T14:54:09.235Z,18.32
2019-05-29T14:56:37.323Z,18.53
2019-05-29T14:59:05.655Z,18.53
2019-05-29T15:01:34.540Z,18.67
2019-05-29T15:04:03.507Z,18.76
2019-05-29T15:06:31.520Z,18.84
2019-05-29T15:08:59.167Z,18.64
2019-05-29T15:11:26.857Z,19.06
2019-05-29T15:13:54.509Z,19.15
2019-05-29T15:16:22.245Z,19.22
2019-05-29T15:18:50.027Z,19.01
2019-05-29T15:21:17.793Z,18.72
2019-05-29T15:23:45.444Z,18.72
2019-05-29T15:26:13.724Z,18.88
2019-05-29T15:28:41.577Z,18.97
2019-05-29T15:31:10.433Z,18.99
2019-05-29T15:33:38.265Z,18.72
2019-05-29T15:36:06.512Z,18.67
2019-05-29T15:38:34.484Z,18.55
2019-05-29T15:41:02.182Z,18.89
2019-05-29T15:43:29.834Z,18.93
2019-05-29T15:45:57.486Z,18.96
2019-05-29T15:48:25.445Z,18.72
2019-05-29T15:50:53.096Z,19.05
2019-05-29T15:53:20.764Z,18.84
2019-05-29T15:55:48.433Z,18.98
2019-05-29T15:58:17.783Z,18.93
2019-05-29T16:00:45.433Z,19.22
2019-05-29T16:03:13.584Z,18.93
2019-05-29T16:05:41.358Z,18.71
2019-05-29T16:08:09.919Z,18.88
2019-05-29T16:10:37.720Z,18.75
2019-05-29T16:13:05.372Z,18.78
2019-05-29T16:15:33.027Z,18.58
2019-05-29T16:18:00.681Z,18.51
2019-05-29T16:20:28.400Z,18.37
2019-05-29T16:22:56.057Z,18.37
2019-05-29T16:25:38.693Z,18.22
2019-05-29T16:27:53.065Z,18.40
2019-05-29T16:30:21.855Z,18.42
2019-05-29T16:32:49.701Z,18.34
2019-05-29T16:35:17.351Z,18.64
2019-05-29T16:37:45.222Z,18.44
2019-05-29T16:40:14.132Z,18.46
2019-05-29T16:42:42.131Z,18.54
2019-05-29T16:45:09.916Z,18.21
2019-05-29T16:47:37.604Z,18.15
2019-05-29T16:50:05.371Z,18.04
2019-05-29T16:52:38.184Z,17.89
2019-05-29T16:55:05.850Z,18.04
2019-05-29T16:57:33.742Z,17.84
2019-05-29T17:00:01.731Z,17.78
2019-05-29T17:02:29.723Z,17.88
2019-05-29T17:04:58.339Z,17.61
2019-05-29T17:07:26.114Z,17.53
2019-05-29T17:09:53.775Z,17.46
2019-05-29T17:12:22.496Z,17.71
2019-05-29T17:14:50.375Z,17.52
2019-05-29T17:17:18.638Z,17.80
2019-05-29T17:19:46.452Z,17.84
2019-05-29T17:22:14.558Z,17.84
2019-05-29T17:24:42.385Z,17.78
2019-05-29T17:27:10.158Z,17.72
2019-05-29T17:29:37.840Z,17.60
2019-05-29T17:32:05.604Z,17.60
2019-05-29T17:34:33.275Z,17.59
2019-05-29T17:37:00.957Z,17.51
2019-05-29T17:39:28.667Z,17.38
2019-05-29T17:41:56.328Z,17.45
2019-05-29T17:44:23.996Z,17.45
2019-05-29T17:46:51.751Z,17.35
2019-05-29T17:49:22.589Z,17.38
2019-05-29T17:51:49.241Z,17.34
2019-05-29T17:54:17.888Z,17.13
2019-05-29T17:56:45.672Z,17.32
2019-05-29T17:59:13.336Z,17.33
2019-05-29T18:01:40.989Z,17.15
2019-05-29T18:04:09.145Z,17.28
2019-05-29T18:06:36.792Z,17.27
2019-05-29T18:09:05.548Z,17.09
2019-05-29T18:11:33.196Z,17.05
2019-05-29T18:14:05.073Z,17.12
2019-05-29T18:16:30.238Z,16.93
2019-05-29T18:18:57.893Z,17.03
2019-05-29T18:21:25.799Z,17.03
2019-05-29T18:23:53.755Z,17.10
2019-05-29T18:26:22.047Z,16.88
2019-05-29T18:28:49.781Z,17.00
2019-05-29T18:31:18.348Z,17.17
2019-05-29T18:33:46.632Z,16.80
2019-05-29T18:36:14.283Z,16.79
2019-05-29T18:38:41.939Z,16.79
2019-05-29T18:41:09.648Z,16.81
2019-05-29T18:43:38.340Z,16.68
2019-05-29T18:46:06.022Z,16.54
2019-05-29T18:48:33.729Z,16.53
2019-05-29T18:51:01.385Z,16.43
2019-05-29T18:53:29.113Z,16.11
2019-05-29T18:55:56.768Z,16.17
2019-05-29T18:58:24.439Z,16.04
2019-05-29T19:00:52.276Z,16.04
2019-05-29T19:03:21.285Z,15.96
2019-05-29T19:05:49.088Z,16.02
2019-05-29T19:08:16.747Z,15.84
2019-05-29T19:10:44.403Z,15.83
2019-05-29T19:13:12.070Z,15.54
2019-05-29T19:15:39.723Z,15.38
2019-05-29T19:18:07.364Z,15.05
2019-05-29T19:20:35.152Z,15.18
2019-05-29T19:23:03.009Z,14.95
2019-05-29T19:25:30.898Z,14.71
2019-05-29T19:27:58.730Z,14.71
2019-05-29T19:30:26.893Z,14.79
2019-05-29T19:32:54.806Z,14.68
2019-05-29T19:35:23.519Z,14.58
2019-05-29T19:37:51.481Z,14.44
2019-05-29T19:40:19.443Z,14.51
2019-05-29T19:42:47.267Z,14.30
2019-05-29T19:45:15.406Z,14.27
2019-05-29T19:47:43.061Z,14.16
2019-05-29T19:50:11.626Z,14.13
2019-05-29T19:52:39.463Z,14.25
2019-05-29T19:55:07.166Z,13.94
2019-05-29T19:57:53.916Z,14.05
2019-05-29T20:00:04.624Z,13.73
2019-05-29T20:02:32.719Z,13.80
2019-05-29T20:05:00.515Z,13.99
2019-05-29T20:07:28.967Z,13.88
2019-05-29T20:09:56.690Z,13.88
2019-05-29T20:12:24.346Z,13.89
2019-05-29T20:14:51.996Z,13.81
2019-05-29T20:17:19.662Z,13.97
2019-05-29T20:19:47.311Z,13.43
2019-05-29T20:22:14.971Z,12.90
2019-05-29T20:24:42.644Z,12.77
2019-05-29T20:27:10.297Z,12.96
2019-05-29T20:29:38.536Z,12.67
2019-05-29T20:32:06.488Z,12.60
2019-05-29T20:34:34.682Z,13.06
2019-05-29T20:37:02.428Z,13.16
2019-05-29T20:39:30.239Z,12.67
2019-05-29T20:41:58.035Z,12.51
2019-05-29T20:44:25.811Z,12.42
2019-05-29T20:46:53.528Z,12.87
2019-05-29T20:49:21.177Z,12.82
2019-05-29T20:51:48.843Z,12.59
2019-05-29T20:54:16.499Z,12.42
2019-05-29T20:56:44.157Z,12.50
2019-05-29T20:59:11.803Z,12.17
2019-05-29T21:01:44.226Z,11.90
2019-05-29T21:04:08.869Z,11.99
2019-05-29T21:06:36.630Z,12.38
2019-05-29T21:09:04.901Z,12.38
2019-05-29T21:11:33.325Z,12.22
2019-05-29T21:14:01.105Z,12.22
2019-05-29T21:16:28.747Z,11.85
2019-05-29T21:18:56.404Z,12.27
2019-05-29T21:21:24.063Z,12.04
2019-05-29T21:23:51.707Z,12.14
2019-05-29T21:26:19.368Z,12.24
2019-05-29T21:28:50.681Z,11.99
2019-05-29T21:31:16.400Z,12.04
2019-05-29T21:33:47.308Z,11.85
2019-05-29T21:36:13.491Z,11.68
2019-05-29T21:38:42.222Z,11.77
2019-05-29T21:41:10.074Z,11.70
2019-05-29T21:43:38.616Z,11.81
2019-05-29T21:46:06.459Z,11.70
2019-05-29T21:48:34.195Z,11.69
2019-05-29T21:51:01.843Z,11.64
2019-05-29T21:53:29.510Z,11.52
2019-05-29T21:55:57.163Z,11.40
2019-05-29T21:58:24.861Z,11.33
2019-05-29T22:00:53.041Z,11.34
2019-05-29T22:03:20.696Z,11.47
2019-05-29T22:05:48.855Z,11.45
2019-05-29T22:08:16.616Z,11.12
2019-05-29T22:10:44.285Z,10.96
2019-05-29T22:13:11.943Z,10.83
2019-05-29T22:15:39.595Z,10.69
2019-05-29T22:18:07.248Z,10.84
2019-05-29T22:20:34.896Z,10.73
2019-05-29T22:23:02.974Z,10.81
2019-05-29T22:25:34.260Z,10.86
2019-05-29T22:28:01.635Z,10.72
2019-05-29T22:30:29.582Z,10.67
2019-05-29T22:32:57.499Z,10.69
2019-05-29T22:35:25.198Z,10.84
2019-05-29T22:37:53.498Z,10.50
2019-05-29T22:40:21.401Z,10.43
2019-05-29T22:42:49.057Z,10.64
2019-05-29T22:45:16.720Z,10.50
2019-05-29T22:47:44.396Z,10.53
2019-05-29T22:50:12.057Z,10.62
2019-05-29T22:52:39.708Z,10.08
2019-05-29T22:55:07.384Z,9.97
2019-05-29T22:57:35.022Z,9.66
2019-05-29T23:00:02.684Z,9.96
2019-05-29T23:02:30.328Z,9.95
2019-05-29T23:04:58.453Z,9.77
2019-05-29T23:07:26.325Z,10.09
2019-05-29T23:09:54.342Z,9.99
2019-05-29T23:12:22.177Z,9.97
2019-05-29T23:14:49.824Z,9.91
2019-05-29T23:17:17.474Z,9.72
2019-05-29T23:19:45.130Z,9.82
2019-05-29T23:22:12.791Z,9.84
2019-05-29T23:24:40.666Z,9.69
2019-05-29T23:27:08.303Z,9.80
2019-05-29T23:29:48.451Z,9.87
2019-05-29T23:32:05.431Z,9.80
2019-05-29T23:34:33.083Z,9.79
2019-05-29T23:37:01.312Z,9.78
2019-05-29T23:39:29.368Z,9.88
2019-05-29T23:41:57.286Z,9.41
2019-05-29T23:44:25.065Z,9.25
2019-05-29T23:46:53.356Z,9.45
2019-05-29T23:49:21.089Z,9.53
2019-05-29T23:51:48.743Z,9.44
2019-05-29T23:54:16.641Z,9.32
2019-05-29T23:56:44.369Z,9.06
2019-05-29T23:59:12.020Z,9.38
